Time;durP1;ratioP1;P1;durP2;ratioP2;P2;SDS_P1;SDS_P2;PMS_P1;PMS_P2;Temp;Humidity;BMP_temperature;BMP_pressure;BME280_temperature;BME280_humidity;BME280_pressure;Samples;Min_cycle;Max_cycle;Signal;HPM_P1;HPM_P2
2022/08/19 00:01:36;;;;;;;;;;;24.30;53.70;;;;;;6338015;22;19918;-93
2022/08/19 00:04:03;;;;;;;;;;;24.20;53.70;;;;;;6331607;22;19910;-94
2022/08/19 00:06:33;;;;;;;;;;;24.20;53.70;;;;;;6324741;22;19907;-95
2022/08/19 00:09:00;;;;;;;;;;;24.20;53.80;;;;;;6322953;22;19907;-94
2022/08/19 00:11:29;;;;;;;;;;;24.10;53.80;;;;;;6323280;22;19917;-94
2022/08/19 00:13:56;;;;;;;;;;;24.10;53.80;;;;;;6322982;22;19934;-94
2022/08/19 00:16:22;;;;;;;;;;;24.10;53.80;;;;;;6323524;22;19907;-95
2022/08/19 00:18:48;;;;;;;;;;;24.00;53.80;;;;;;6326555;22;19911;-94
2022/08/19 00:21:14;;;;;;;;;;;24.00;54.00;;;;;;6325561;22;19909;-94
2022/08/19 00:23:40;;;;;;;;;;;24.00;54.00;;;;;;6325562;22;19919;-94
2022/08/19 00:26:06;;;;;;;;;;;23.90;54.00;;;;;;6324163;22;19938;-94
2022/08/19 00:28:32;;;;;;;;;;;23.80;54.10;;;;;;6324596;22;19903;-94
2022/08/19 00:30:58;;;;;;;;;;;23.80;54.20;;;;;;6324008;22;19933;-94
2022/08/19 00:33:24;;;;;;;;;;;23.80;54.20;;;;;;6333623;22;19936;-94
2022/08/19 00:35:50;;;;;;;;;;;23.80;54.10;;;;;;6355888;22;19894;-93
2022/08/19 00:38:15;;;;;;;;;;;23.80;54.20;;;;;;6327207;22;19906;-95
2022/08/19 00:40:46;;;;;;;;;;;23.70;54.20;;;;;;6325875;22;20030;-94
2022/08/19 00:43:12;;;;;;;;;;;23.70;54.10;;;;;;6353010;22;20436;-95
2022/08/19 00:45:41;;;;;;;;;;;23.60;54.20;;;;;;6324845;22;19985;-95
2022/08/19 00:48:06;;;;;;;;;;;23.60;54.30;;;;;;6324931;22;19915;-94
2022/08/19 00:50:33;;;;;;;;;;;23.50;54.40;;;;;;6324900;22;19955;-95
2022/08/19 00:52:59;;;;;;;;;;;23.50;54.30;;;;;;6323590;22;19977;-94
2022/08/19 00:55:28;;;;;;;;;;;23.50;54.40;;;;;;6324645;22;19903;-96
2022/08/19 00:58:06;;;;;;;;;;;23.50;54.40;;;;;;6325288;22;19910;-95
2022/08/19 01:00:35;;;;;;;;;;;23.50;54.60;;;;;;6325524;22;19960;-95
2022/08/19 01:03:00;;;;;;;;;;;23.40;54.50;;;;;;6324058;22;19914;-95
2022/08/19 01:05:28;;;;;;;;;;;23.40;54.50;;;;;;6297832;22;20541;-94
2022/08/19 01:07:58;;;;;;;;;;;23.40;54.40;;;;;;6325478;22;19922;-94
2022/08/19 01:10:26;;;;;;;;;;;23.40;54.30;;;;;;6353078;22;19906;-94
2022/08/19 01:12:52;;;;;;;;;;;23.40;54.20;;;;;;6324754;22;19895;-95
2022/08/19 01:15:20;;;;;;;;;;;23.40;54.20;;;;;;6322852;22;19930;-94
2022/08/19 01:17:46;;;;;;;;;;;23.30;54.10;;;;;;6321283;22;19911;-96
2022/08/19 01:20:17;;;;;;;;;;;23.30;54.40;;;;;;6350351;22;19954;-95
2022/08/19 01:22:47;;;;;;;;;;;23.30;54.50;;;;;;6322591;22;19906;-95
2022/08/19 01:25:15;;;;;;;;;;;23.30;54.80;;;;;;6351522;22;20319;-94
2022/08/19 01:27:43;;;;;;;;;;;23.30;54.70;;;;;;6324153;22;19953;-94
2022/08/19 01:30:09;;;;;;;;;;;23.20;54.70;;;;;;6323995;22;19910;-94
2022/08/19 01:32:35;;;;;;;;;;;23.20;54.80;;;;;;6353282;22;19911;-94
2022/08/19 01:35:02;;;;;;;;;;;23.20;54.80;;;;;;6324671;22;20643;-95
2022/08/19 01:37:28;;;;;;;;;;;23.30;54.70;;;;;;6324948;22;19906;-95
2022/08/19 01:39:54;;;;;;;;;;;23.30;54.60;;;;;;6352999;22;19907;-95
2022/08/19 01:42:19;;;;;;;;;;;23.30;54.40;;;;;;6324283;22;19936;-95
2022/08/19 01:44:45;;;;;;;;;;;23.30;54.30;;;;;;6322936;22;19918;-95
2022/08/19 01:47:10;;;;;;;;;;;23.20;54.30;;;;;;6324430;22;19903;-95
2022/08/19 01:49:36;;;;;;;;;;;23.20;54.30;;;;;;6325282;22;19928;-96
2022/08/19 01:52:02;;;;;;;;;;;23.10;54.40;;;;;;6323950;22;19936;-95
2022/08/19 01:54:28;;;;;;;;;;;23.10;54.90;;;;;;6321366;22;20307;-95
2022/08/19 01:56:57;;;;;;;;;;;23.00;55.30;;;;;;6320105;22;20283;-95
2022/08/19 01:59:23;;;;;;;;;;;22.90;55.50;;;;;;6321327;22;20267;-95
2022/08/19 02:01:49;;;;;;;;;;;22.90;55.40;;;;;;6350389;22;20222;-95
2022/08/19 02:04:15;;;;;;;;;;;22.80;55.50;;;;;;6321965;22;19961;-95
2022/08/19 02:06:41;;;;;;;;;;;22.80;55.40;;;;;;6321528;22;19906;-95
2022/08/19 02:09:07;;;;;;;;;;;22.80;55.60;;;;;;6322809;22;19934;-95
2022/08/19 02:14:08;;;;;;;;;;;22.70;55.40;;;;;;6284575;22;19919;-94
2022/08/19 02:16:35;;;;;;;;;;;22.70;55.40;;;;;;6286468;22;19982;-94
2022/08/19 02:19:00;;;;;;;;;;;22.60;55.50;;;;;;6259843;22;20308;-94
2022/08/19 02:21:26;;;;;;;;;;;22.60;55.40;;;;;;6259144;22;19997;-94
2022/08/19 02:23:52;;;;;;;;;;;22.60;55.40;;;;;;6286731;22;20316;-94
2022/08/19 02:26:18;;;;;;;;;;;22.60;55.50;;;;;;6286657;22;19912;-94
2022/08/19 02:28:44;;;;;;;;;;;22.50;55.50;;;;;;6259854;22;19914;-94
2022/08/19 02:31:14;;;;;;;;;;;22.60;55.40;;;;;;6259625;22;19958;-94
2022/08/19 02:33:40;;;;;;;;;;;22.50;55.40;;;;;;6259284;22;19911;-94
2022/08/19 02:36:07;;;;;;;;;;;22.50;55.40;;;;;;6257754;22;19927;-94
2022/08/19 02:38:32;;;;;;;;;;;22.50;55.40;;;;;;6257994;22;19904;-94
2022/08/19 02:40:59;;;;;;;;;;;22.50;55.50;;;;;;6256984;22;19915;-93
2022/08/19 02:43:25;;;;;;;;;;;22.50;55.50;;;;;;6258165;22;19914;-94
2022/08/19 02:45:51;;;;;;;;;;;22.50;55.60;;;;;;6259821;22;19926;-93
2022/08/19 02:48:18;;;;;;;;;;;22.50;55.60;;;;;;6259319;22;19907;-93
2022/08/19 02:50:44;;;;;;;;;;;22.60;55.60;;;;;;6286078;22;19918;-94
2022/08/19 02:53:10;;;;;;;;;;;22.50;55.60;;;;;;6259986;22;20367;-94
2022/08/19 02:55:41;;;;;;;;;;;22.60;55.70;;;;;;6259968;22;19908;-95
2022/08/19 02:58:07;;;;;;;;;;;22.50;55.80;;;;;;6257623;22;19933;-93
2022/08/19 03:00:32;;;;;;;;;;;22.50;55.90;;;;;;6259431;22;19911;-93
2022/08/19 03:02:58;;;;;;;;;;;22.50;56.00;;;;;;6259843;22;19910;-95
2022/08/19 03:05:24;;;;;;;;;;;22.50;55.90;;;;;;6287490;22;19922;-95
2022/08/19 03:07:49;;;;;;;;;;;22.40;55.80;;;;;;6262005;22;19919;-95
2022/08/19 03:10:15;;;;;;;;;;;22.40;55.70;;;;;;6260860;22;20355;-95
2022/08/19 03:12:40;;;;;;;;;;;22.40;55.60;;;;;;6260283;22;19907;-94
2022/08/19 03:15:07;;;;;;;;;;;22.30;55.60;;;;;;6262392;22;19911;-94
2022/08/19 03:17:33;;;;;;;;;;;22.30;55.60;;;;;;6259538;22;19887;-94
2022/08/19 03:19:59;;;;;;;;;;;22.30;55.60;;;;;;6263420;22;19923;-94
2022/08/19 03:22:25;;;;;;;;;;;22.30;55.60;;;;;;6261298;22;20331;-94
2022/08/19 03:24:50;;;;;;;;;;;22.30;55.70;;;;;;6263385;22;19915;-93
2022/08/19 03:27:17;;;;;;;;;;;22.30;55.80;;;;;;6265327;22;19918;-95
2022/08/19 03:29:43;;;;;;;;;;;22.20;55.80;;;;;;6293812;22;19907;-96
2022/08/19 03:32:12;;;;;;;;;;;22.30;55.90;;;;;;6266467;22;20351;-94
2022/08/19 03:34:38;;;;;;;;;;;22.20;56.10;;;;;;6287904;22;19907;-95
2022/08/19 03:37:06;;;;;;;;;;;22.20;56.00;;;;;;6260357;22;19904;-93
2022/08/19 03:39:32;;;;;;;;;;;22.10;56.00;;;;;;6260811;22;19927;-95
2022/08/19 03:42:02;;;;;;;;;;;22.10;56.00;;;;;;6290622;22;20447;-95
2022/08/19 03:44:28;;;;;;;;;;;22.10;56.00;;;;;;6322644;22;20406;-94
2022/08/19 03:46:56;;;;;;;;;;;22.10;56.00;;;;;;6322028;22;19906;-95
2022/08/19 03:49:23;;;;;;;;;;;22.00;56.10;;;;;;6321572;22;19906;-95
2022/08/19 03:51:50;;;;;;;;;;;22.00;56.10;;;;;;6321312;22;19933;-95
2022/08/19 03:54:17;;;;;;;;;;;22.00;56.30;;;;;;6320625;22;20319;-94
2022/08/19 03:56:43;;;;;;;;;;;22.00;56.40;;;;;;6319928;22;20325;-94
2022/08/19 03:59:13;;;;;;;;;;;21.90;56.40;;;;;;6321495;22;19915;-95
2022/08/19 04:01:39;;;;;;;;;;;21.90;56.60;;;;;;6320623;22;19903;-94
2022/08/19 04:04:04;;;;;;;;;;;21.80;56.60;;;;;;6321053;22;19906;-94
2022/08/19 04:06:31;;;;;;;;;;;21.80;56.60;;;;;;6320365;22;19957;-94
2022/08/19 04:08:58;;;;;;;;;;;21.80;56.70;;;;;;6315705;22;19923;-95
2022/08/19 04:11:25;;;;;;;;;;;21.80;56.80;;;;;;6314984;22;19907;-94
2022/08/19 04:13:52;;;;;;;;;;;21.80;56.90;;;;;;6314872;22;19907;-95
2022/08/19 04:16:19;;;;;;;;;;;21.80;57.10;;;;;;6316356;22;19941;-95
2022/08/19 04:18:45;;;;;;;;;;;21.70;57.30;;;;;;6318604;22;19959;-95
2022/08/19 04:21:19;;;;;;;;;;;21.70;57.30;;;;;;6316362;22;19910;-94
2022/08/19 04:23:44;;;;;;;;;;;21.80;57.40;;;;;;6319463;22;19907;-94
2022/08/19 04:26:14;;;;;;;;;;;21.80;57.30;;;;;;6315897;22;19956;-94
2022/08/19 04:28:39;;;;;;;;;;;21.80;57.60;;;;;;6318308;22;19933;-95
2022/08/19 04:31:05;;;;;;;;;;;21.80;57.60;;;;;;6316664;22;19907;-94
2022/08/19 04:33:31;;;;;;;;;;;21.80;57.60;;;;;;6316705;22;20308;-94
2022/08/19 04:35:58;;;;;;;;;;;21.80;57.60;;;;;;6317607;22;19907;-93
2022/08/19 04:38:23;;;;;;;;;;;21.90;57.50;;;;;;6317210;22;19937;-96
2022/08/19 04:43:35;;;;;;;;;;;21.90;57.70;;;;;;6317331;22;19941;-95
2022/08/19 04:46:05;;;;;;;;;;;21.90;57.70;;;;;;6314406;22;20301;-95
2022/08/19 04:48:31;;;;;;;;;;;22.00;57.70;;;;;;6314718;22;20231;-96
2022/08/19 04:53:22;;;;;;;;;;;22.20;57.70;;;;;;6344876;22;20327;-94
2022/08/19 04:55:48;;;;;;;;;;;22.20;57.60;;;;;;6322210;22;19903;-95
2022/08/19 04:58:13;;;;;;;;;;;22.30;57.80;;;;;;6322500;22;19913;-95
2022/08/19 05:00:46;;;;;;;;;;;22.30;57.90;;;;;;6322530;22;19918;-93
2022/08/19 05:03:12;;;;;;;;;;;22.50;58.00;;;;;;6321004;22;19962;-94
2022/08/19 05:05:39;;;;;;;;;;;22.70;58.00;;;;;;6322671;22;19907;-95
2022/08/19 05:08:05;;;;;;;;;;;22.80;58.00;;;;;;6321561;22;19962;-94
2022/08/19 05:10:31;;;;;;;;;;;22.90;58.10;;;;;;6320812;22;19910;-95
2022/08/19 05:12:57;;;;;;;;;;;23.10;58.20;;;;;;6320645;22;19902;-96
2022/08/19 05:15:22;;;;;;;;;;;23.30;58.40;;;;;;6321221;22;19914;-96
2022/08/19 05:23:19;;;;;;;;;;;24.00;58.50;;;;;;6349369;22;20385;-95
2022/08/19 05:25:44;;;;;;;;;;;24.30;58.70;;;;;;6321065;22;19907;-94
2022/08/19 05:28:10;;;;;;;;;;;24.60;58.00;;;;;;6320365;22;19907;-95
2022/08/19 05:30:35;;;;;;;;;;;24.80;57.40;;;;;;6320802;22;19922;-92
2022/08/19 05:33:01;;;;;;;;;;;25.00;57.80;;;;;;6321100;22;19926;-95
2022/08/19 05:35:28;;;;;;;;;;;25.40;58.40;;;;;;6320088;22;20342;-95
2022/08/19 05:37:54;;;;;;;;;;;25.90;58.20;;;;;;6321078;22;19910;-94
2022/08/19 05:40:19;;;;;;;;;;;26.20;57.70;;;;;;6319708;22;19929;-95
2022/08/19 05:42:45;;;;;;;;;;;26.70;57.60;;;;;;6319756;22;19910;-93
2022/08/19 05:45:11;;;;;;;;;;;27.10;57.20;;;;;;6318688;22;19914;-95
2022/08/19 05:47:37;;;;;;;;;;;27.50;56.40;;;;;;6346839;22;19914;-94
2022/08/19 05:50:03;;;;;;;;;;;28.00;56.10;;;;;;6320296;22;19910;-93
2022/08/19 05:52:28;;;;;;;;;;;28.40;55.30;;;;;;6321616;22;19914;-95
2022/08/19 05:54:57;;;;;;;;;;;28.60;53.70;;;;;;6320285;22;20479;-94
2022/08/19 05:57:23;;;;;;;;;;;28.70;52.70;;;;;;6319368;22;19906;-94
2022/08/19 05:59:51;;;;;;;;;;;28.80;52.40;;;;;;6320262;22;19921;-94
2022/08/19 06:02:16;;;;;;;;;;;29.00;52.50;;;;;;6320826;22;19898;-95
2022/08/19 06:04:45;;;;;;;;;;;29.30;52.20;;;;;;6320720;22;19917;-94
2022/08/19 06:07:10;;;;;;;;;;;29.50;51.40;;;;;;6347645;22;20312;-95
2022/08/19 06:09:37;;;;;;;;;;;29.80;50.80;;;;;;6348198;22;19923;-93
2022/08/19 06:12:04;;;;;;;;;;;30.10;50.30;;;;;;6295506;22;19891;-95
2022/08/19 06:14:31;;;;;;;;;;;30.40;49.90;;;;;;6321897;22;19918;-94
2022/08/19 06:16:57;;;;;;;;;;;30.70;49.50;;;;;;6320915;22;19922;-94
2022/08/19 06:19:24;;;;;;;;;;;31.00;49.30;;;;;;6320814;22;19891;-92
2022/08/19 06:21:50;;;;;;;;;;;31.50;48.50;;;;;;6321451;22;20338;-92
2022/08/19 06:24:19;;;;;;;;;;;31.90;47.80;;;;;;6319201;22;19960;-92
2022/08/19 06:26:46;;;;;;;;;;;32.30;46.90;;;;;;6324619;22;19944;-92
2022/08/19 06:29:12;;;;;;;;;;;32.80;45.70;;;;;;6348778;22;19948;-93
2022/08/19 06:31:40;;;;;;;;;;;33.40;44.90;;;;;;6320809;22;19907;-93
2022/08/19 06:34:06;;;;;;;;;;;34.00;43.60;;;;;;6324517;22;19906;-94
2022/08/19 06:36:40;;;;;;;;;;;34.40;42.70;;;;;;6322322;22;19918;-95
2022/08/19 06:41:42;;;;;;;;;;;35.20;40.10;;;;;;6249901;22;19974;-94
2022/08/19 06:44:09;;;;;;;;;;;35.50;39.10;;;;;;6253230;23;19911;-94
2022/08/19 06:46:37;;;;;;;;;;;35.80;38.80;;;;;;6253916;23;20053;-92
2022/08/19 06:49:03;;;;;;;;;;;36.20;38.50;;;;;;6257671;22;19907;-94
2022/08/19 06:51:31;;;;;;;;;;;36.50;37.40;;;;;;6288351;22;19961;-93
2022/08/19 06:53:57;;;;;;;;;;;36.80;36.40;;;;;;6289800;22;19903;-93
2022/08/19 06:56:24;;;;;;;;;;;37.20;36.00;;;;;;6290557;22;19918;-94
2022/08/19 06:58:52;;;;;;;;;;;37.40;35.30;;;;;;6316087;22;19922;-94
2022/08/19 07:01:18;;;;;;;;;;;37.80;34.50;;;;;;6291004;22;19902;-94
2022/08/19 07:03:43;;;;;;;;;;;38.00;34.30;;;;;;6287580;22;19933;-93
2022/08/19 07:06:10;;;;;;;;;;;38.30;33.80;;;;;;6313786;22;19914;-94
2022/08/19 07:08:36;;;;;;;;;;;38.60;33.10;;;;;;6315233;22;19915;-93
2022/08/19 07:11:13;;;;;;;;;;;39.00;31.60;;;;;;6314387;22;19914;-93
2022/08/19 07:13:39;;;;;;;;;;;39.20;31.70;;;;;;6313640;22;20307;-93
2022/08/19 07:16:09;;;;;;;;;;;39.60;31.10;;;;;;6285515;22;19907;-93
2022/08/19 07:18:35;;;;;;;;;;;39.80;30.20;;;;;;6285539;22;19911;-94
2022/08/19 07:21:15;;;;;;;;;;;40.00;29.00;;;;;;6286382;22;19903;-94
2022/08/19 07:23:41;;;;;;;;;;;40.00;28.80;;;;;;6286512;22;19915;-95
2022/08/19 07:26:12;;;;;;;;;;;40.20;28.60;;;;;;6286523;22;19909;-94
2022/08/19 07:28:38;;;;;;;;;;;40.40;27.90;;;;;;6312275;22;19914;-94
2022/08/19 07:31:12;;;;;;;;;;;40.70;27.50;;;;;;6313585;22;19945;-94
2022/08/19 07:33:47;;;;;;;;;;;40.80;27.60;;;;;;6312729;22;19910;-94
2022/08/19 07:36:14;;;;;;;;;;;41.10;27.30;;;;;;6311605;22;19942;-94
2022/08/19 07:38:51;;;;;;;;;;;41.40;27.50;;;;;;6311348;22;20513;-94
2022/08/19 07:41:19;;;;;;;;;;;41.70;27.10;;;;;;6311666;22;19956;-94
2022/08/19 07:43:45;;;;;;;;;;;42.10;27.10;;;;;;6312615;22;19929;-93
2022/08/19 07:46:13;;;;;;;;;;;42.40;25.90;;;;;;6313656;22;19915;-94
2022/08/19 07:48:39;;;;;;;;;;;42.60;25.90;;;;;;6286272;22;20324;-95
2022/08/19 07:51:09;;;;;;;;;;;42.80;25.70;;;;;;6312609;22;19927;-94
2022/08/19 07:53:35;;;;;;;;;;;43.10;25.90;;;;;;6314203;22;19911;-95
2022/08/19 07:56:03;;;;;;;;;;;43.40;25.70;;;;;;6313902;22;19911;-96
2022/08/19 07:58:38;;;;;;;;;;;43.70;25.30;;;;;;6312294;22;19903;-94
2022/08/19 08:01:05;;;;;;;;;;;44.00;24.80;;;;;;6313019;22;19911;-93
2022/08/19 08:11:11;;;;;;;;;;;44.80;23.50;;;;;;6316489;22;19891;-94
2022/08/19 08:13:37;;;;;;;;;;;44.80;23.20;;;;;;6288403;22;19956;-94
2022/08/19 08:16:03;;;;;;;;;;;44.70;23.30;;;;;;6313686;22;20077;-94
2022/08/19 08:18:28;;;;;;;;;;;44.60;23.10;;;;;;6313592;22;20319;-94
2022/08/19 08:20:54;;;;;;;;;;;44.40;23.30;;;;;;6322428;22;19907;-95
2022/08/19 08:23:24;;;;;;;;;;;44.30;23.20;;;;;;6332505;22;19899;-93
2022/08/19 08:25:51;;;;;;;;;;;44.00;23.10;;;;;;6332249;22;19911;-93
2022/08/19 08:28:19;;;;;;;;;;;43.90;23.30;;;;;;6303892;22;19911;-94
2022/08/19 08:30:47;;;;;;;;;;;44.00;23.70;;;;;;6330869;22;19930;-94
2022/08/19 08:33:16;;;;;;;;;;;44.20;23.50;;;;;;6320092;22;19911;-95
2022/08/19 08:35:42;;;;;;;;;;;44.30;23.00;;;;;;6314682;22;19911;-95
2022/08/19 08:38:08;;;;;;;;;;;44.40;22.40;;;;;;6316238;22;20269;-95
2022/08/19 08:40:45;;;;;;;;;;;44.20;22.00;;;;;;6314329;22;19903;-96
2022/08/19 08:43:30;;;;;;;;;;;44.00;21.80;;;;;;6314180;22;19911;-95
2022/08/19 08:46:02;;;;;;;;;;;43.90;22.20;;;;;;6312526;22;19909;-95
2022/08/19 08:48:39;;;;;;;;;;;44.00;22.20;;;;;;6287050;22;19915;-96
2022/08/19 08:56:34;;;;;;;;;;;44.20;22.10;;;;;;6290396;22;19919;-95
2022/08/19 08:59:19;;;;;;;;;;;44.20;22.40;;;;;;6319979;22;19887;-95
2022/08/19 09:01:48;;;;;;;;;;;44.20;22.20;;;;;;6269782;22;19925;-96
2022/08/19 09:04:27;;;;;;;;;;;44.50;22.50;;;;;;6320372;22;19903;-96
2022/08/19 09:07:06;;;;;;;;;;;44.90;22.10;;;;;;6249819;22;19924;-96
2022/08/19 09:09:45;;;;;;;;;;;45.10;21.20;;;;;;6263013;22;19906;-94
2022/08/19 09:22:33;;;;;;;;;;;44.10;21.00;;;;;;6316302;22;19919;-96
2022/08/19 09:25:03;;;;;;;;;;;44.00;20.70;;;;;;6306322;22;19887;-94
2022/08/19 09:35:12;;;;;;;;;;;43.90;20.40;;;;;;6335459;22;19909;-95
2022/08/19 09:54:03;;;;;;;;;;;44.40;19.40;;;;;;6301858;22;19929;-95
2022/08/19 09:56:28;;;;;;;;;;;44.30;19.50;;;;;;6293600;22;19903;-94
2022/08/19 09:58:54;;;;;;;;;;;44.30;19.80;;;;;;6288497;22;19914;-95
2022/08/19 10:01:23;;;;;;;;;;;44.60;19.60;;;;;;6288044;22;20303;-95
2022/08/19 10:03:51;;;;;;;;;;;44.80;19.70;;;;;;6286174;22;19918;-94
2022/08/19 10:06:18;;;;;;;;;;;45.30;19.50;;;;;;6262352;22;19907;-95
2022/08/19 10:08:44;;;;;;;;;;;45.60;18.90;;;;;;6287766;22;19911;-93
2022/08/19 10:11:09;;;;;;;;;;;45.90;19.10;;;;;;6289416;22;19917;-95
2022/08/19 10:13:35;;;;;;;;;;;46.40;18.60;;;;;;6288659;22;19899;-95
2022/08/19 10:16:06;;;;;;;;;;;46.60;18.60;;;;;;6295117;22;19919;-95
2022/08/19 10:18:33;;;;;;;;;;;47.00;18.70;;;;;;6345351;22;20319;-95
2022/08/19 10:21:08;;;;;;;;;;;47.40;18.30;;;;;;6292160;22;19911;-94
2022/08/19 10:23:36;;;;;;;;;;;47.70;17.60;;;;;;6344896;22;19914;-95
2022/08/19 10:26:03;;;;;;;;;;;47.70;17.40;;;;;;6291767;22;20357;-94
2022/08/19 10:28:29;;;;;;;;;;;47.90;17.10;;;;;;6344265;22;19910;-95
2022/08/19 10:30:54;;;;;;;;;;;47.60;17.00;;;;;;6317205;22;19981;-95
2022/08/19 10:33:20;;;;;;;;;;;47.00;17.00;;;;;;6316582;22;19918;-95
2022/08/19 10:35:46;;;;;;;;;;;46.50;17.50;;;;;;6318019;22;19959;-95
2022/08/19 10:38:12;;;;;;;;;;;45.80;17.70;;;;;;6317008;22;19914;-95
2022/08/19 10:40:37;;;;;;;;;;;45.30;18.30;;;;;;6314847;22;19938;-94
2022/08/19 10:43:05;;;;;;;;;;;45.40;18.50;;;;;;6344055;22;19936;-96
2022/08/19 10:45:31;;;;;;;;;;;45.40;18.40;;;;;;6317513;22;19949;-95
2022/08/19 10:47:56;;;;;;;;;;;45.50;18.40;;;;;;6293058;22;19910;-95
2022/08/19 10:53:08;;;;;;;;;;;46.20;18.50;;;;;;6346612;22;19917;-95
2022/08/19 10:58:25;;;;;;;;;;;46.90;17.50;;;;;;6346683;22;19933;-95
2022/08/19 11:00:53;;;;;;;;;;;47.10;17.50;;;;;;6319227;22;19907;-95
2022/08/19 11:03:18;;;;;;;;;;;46.80;17.50;;;;;;6306358;22;19993;-95
2022/08/19 11:05:48;;;;;;;;;;;46.30;17.50;;;;;;6318577;22;19918;-96
2022/08/19 11:08:14;;;;;;;;;;;45.40;17.70;;;;;;6318888;22;19910;-95
2022/08/19 11:10:42;;;;;;;;;;;44.80;18.10;;;;;;6318397;22;19917;-94
2022/08/19 11:13:11;;;;;;;;;;;44.80;18.20;;;;;;6318840;22;19910;-95
2022/08/19 11:15:37;;;;;;;;;;;45.10;18.30;;;;;;6317580;22;19921;-94
2022/08/19 11:18:02;;;;;;;;;;;45.40;18.10;;;;;;6317582;22;19902;-95
2022/08/19 11:20:29;;;;;;;;;;;45.70;17.90;;;;;;6318035;22;19907;-96
2022/08/19 11:22:57;;;;;;;;;;;45.90;18.00;;;;;;6346593;22;19910;-94
2022/08/19 11:25:23;;;;;;;;;;;46.40;17.90;;;;;;6343689;22;19906;-95
2022/08/19 11:27:50;;;;;;;;;;;46.50;17.00;;;;;;6320700;22;19922;-94
2022/08/19 11:30:16;;;;;;;;;;;45.70;17.10;;;;;;6320370;22;19910;-95
2022/08/19 11:32:41;;;;;;;;;;;45.30;17.60;;;;;;6347836;22;19956;-95
2022/08/19 11:35:07;;;;;;;;;;;45.30;17.80;;;;;;6319639;22;19918;-94
2022/08/19 11:37:37;;;;;;;;;;;45.30;17.30;;;;;;6347974;22;19903;-95
2022/08/19 11:40:06;;;;;;;;;;;44.80;16.70;;;;;;6321761;22;20604;-94
2022/08/19 11:45:16;;;;;;;;;;;45.30;17.30;;;;;;6347958;22;19917;-95
2022/08/19 11:47:41;;;;;;;;;;;45.90;17.30;;;;;;6346365;22;19944;-95
2022/08/19 11:50:07;;;;;;;;;;;46.40;17.20;;;;;;6320369;22;19906;-95
2022/08/19 11:52:33;;;;;;;;;;;46.90;16.80;;;;;;6320388;22;19907;-95
2022/08/19 11:54:58;;;;;;;;;;;47.20;16.60;;;;;;6319656;22;19918;-94
2022/08/19 11:57:24;;;;;;;;;;;47.50;16.50;;;;;;6321898;22;19906;-96
2022/08/19 11:59:51;;;;;;;;;;;47.70;16.30;;;;;;6322407;22;19907;-96
2022/08/19 12:02:52;;;;;;;;;;;47.80;16.10;;;;;;6294206;22;19921;-96
2022/08/19 12:05:08;;;;;;;;;;;48.00;16.00;;;;;;6343045;22;20465;-95
2022/08/19 12:19:30;;;;;;;;;;;47.00;15.50;;;;;;6340213;22;19950;-95
2022/08/19 12:22:00;;;;;;;;;;;46.60;15.80;;;;;;6320666;22;19910;-95
2022/08/19 12:24:26;;;;;;;;;;;46.10;16.00;;;;;;6323264;22;20219;-95
2022/08/19 12:26:51;;;;;;;;;;;45.90;16.10;;;;;;6323595;22;19914;-94
2022/08/19 12:29:17;;;;;;;;;;;45.80;16.50;;;;;;6309660;22;19915;-96
2022/08/19 12:31:42;;;;;;;;;;;45.60;16.80;;;;;;6321463;22;19903;-95
2022/08/19 12:34:08;;;;;;;;;;;45.50;16.90;;;;;;6323150;22;19962;-96
2022/08/19 12:36:34;;;;;;;;;;;45.40;16.80;;;;;;6323324;22;20227;-96
2022/08/19 12:38:59;;;;;;;;;;;45.10;16.60;;;;;;6320698;22;19997;-96
2022/08/19 12:41:25;;;;;;;;;;;44.90;17.00;;;;;;6322784;22;19921;-95
2022/08/19 12:43:51;;;;;;;;;;;44.90;17.00;;;;;;6321621;22;19911;-95
2022/08/19 12:46:18;;;;;;;;;;;44.80;17.10;;;;;;6323805;22;20208;-95
2022/08/19 12:48:45;;;;;;;;;;;45.00;17.50;;;;;;6297384;22;19907;-96
2022/08/19 12:51:15;;;;;;;;;;;45.20;17.50;;;;;;6323675;22;19906;-96
2022/08/19 12:53:42;;;;;;;;;;;45.30;16.90;;;;;;6321721;22;19914;-96
2022/08/19 12:56:09;;;;;;;;;;;45.10;16.70;;;;;;6322003;22;20531;-96
2022/08/19 12:58:34;;;;;;;;;;;44.90;16.90;;;;;;6322086;22;20299;-95
2022/08/19 13:01:30;;;;;;;;;;;44.60;16.90;;;;;;6321869;22;19906;-95
2022/08/19 13:03:56;;;;;;;;;;;43.90;17.20;;;;;;6319498;22;19906;-96
2022/08/19 13:06:22;;;;;;;;;;;43.80;17.60;;;;;;6321818;22;19941;-96
2022/08/19 13:08:48;;;;;;;;;;;43.90;17.90;;;;;;6321874;22;19954;-95
2022/08/19 13:11:16;;;;;;;;;;;43.90;18.00;;;;;;6348846;22;20000;-95
2022/08/19 13:13:42;;;;;;;;;;;43.40;18.30;;;;;;6320298;22;19906;-95
2022/08/19 13:16:27;;;;;;;;;;;43.10;18.70;;;;;;6295410;22;19963;-94
2022/08/19 13:18:53;;;;;;;;;;;42.80;18.90;;;;;;6320831;22;19922;-96
2022/08/19 13:21:19;;;;;;;;;;;42.00;19.40;;;;;;6349441;22;19902;-95
2022/08/19 13:23:45;;;;;;;;;;;41.40;19.90;;;;;;6320768;22;20380;-96
2022/08/19 13:26:13;;;;;;;;;;;41.40;20.10;;;;;;6322402;22;19911;-95
2022/08/19 13:34:25;;;;;;;;;;;41.20;20.50;;;;;;6352313;22;20002;-94
2022/08/19 13:36:51;;;;;;;;;;;40.80;20.70;;;;;;6324603;22;20303;-93
2022/08/19 13:39:17;;;;;;;;;;;40.60;20.90;;;;;;6324774;22;19911;-96
2022/08/19 13:41:47;;;;;;;;;;;40.20;20.80;;;;;;6325947;22;19902;-94
2022/08/19 13:44:15;;;;;;;;;;;40.00;21.10;;;;;;6325990;22;19942;-95
2022/08/19 13:46:44;;;;;;;;;;;39.70;21.10;;;;;;6324081;22;19925;-95
2022/08/19 13:49:14;;;;;;;;;;;39.20;21.20;;;;;;6351198;22;19902;-96
2022/08/19 13:51:41;;;;;;;;;;;38.80;21.60;;;;;;6322984;22;20266;-95
2022/08/19 13:54:08;;;;;;;;;;;38.50;21.90;;;;;;6320632;22;19911;-95
2022/08/19 13:56:34;;;;;;;;;;;38.30;22.10;;;;;;6320409;22;19902;-96
2022/08/19 13:58:59;;;;;;;;;;;37.90;22.40;;;;;;6320610;22;19907;-95
2022/08/19 14:01:26;;;;;;;;;;;37.70;22.80;;;;;;6320582;22;19917;-95
2022/08/19 14:03:52;;;;;;;;;;;37.50;23.10;;;;;;6320725;22;19917;-95
2022/08/19 14:06:18;;;;;;;;;;;37.30;23.30;;;;;;6319261;22;19924;-95
2022/08/19 14:08:44;;;;;;;;;;;37.20;23.40;;;;;;6315666;22;19902;-95
2022/08/19 14:11:10;;;;;;;;;;;37.00;23.40;;;;;;6317053;22;19919;-93
2022/08/19 14:14:02;;;;;;;;;;;36.90;23.40;;;;;;6348125;22;19909;-95
2022/08/19 14:16:33;;;;;;;;;;;36.70;23.50;;;;;;6348340;22;19918;-95
2022/08/19 14:19:09;;;;;;;;;;;36.70;23.60;;;;;;6323440;22;19911;-95
2022/08/19 14:21:44;;;;;;;;;;;36.50;23.70;;;;;;6318255;22;19918;-94
2022/08/19 14:24:13;;;;;;;;;;;36.50;23.80;;;;;;6318832;22;19928;-95
2022/08/19 14:26:38;;;;;;;;;;;36.50;23.90;;;;;;6316627;22;19910;-95
2022/08/19 14:29:12;;;;;;;;;;;36.50;23.90;;;;;;6321016;22;19906;-94
2022/08/19 14:31:42;;;;;;;;;;;36.50;24.10;;;;;;6320311;22;19910;-95
2022/08/19 14:34:09;;;;;;;;;;;36.40;24.30;;;;;;6316693;22;19911;-94
2022/08/19 14:36:37;;;;;;;;;;;36.30;24.20;;;;;;6349817;22;19907;-94
2022/08/19 14:39:03;;;;;;;;;;;36.20;24.50;;;;;;6321168;22;19937;-94
2022/08/19 14:41:30;;;;;;;;;;;36.20;24.80;;;;;;6321559;22;19907;-94
2022/08/19 14:43:56;;;;;;;;;;;36.20;25.00;;;;;;6322311;22;20316;-93
2022/08/19 14:46:23;;;;;;;;;;;36.10;24.70;;;;;;6322110;22;19913;-94
2022/08/19 14:48:49;;;;;;;;;;;36.00;24.70;;;;;;6348478;22;19886;-94
2022/08/19 14:51:15;;;;;;;;;;;35.90;24.90;;;;;;6293457;22;19910;-94
2022/08/19 14:53:41;;;;;;;;;;;35.80;25.10;;;;;;6346471;22;20231;-94
2022/08/19 14:56:09;;;;;;;;;;;35.80;25.20;;;;;;6349547;22;19906;-96
2022/08/19 14:58:35;;;;;;;;;;;35.70;25.30;;;;;;6317629;22;20579;-92
2022/08/19 15:01:01;;;;;;;;;;;35.70;25.40;;;;;;6318449;22;19914;-94
2022/08/19 15:03:27;;;;;;;;;;;35.80;25.40;;;;;;6320704;22;19914;-91
2022/08/19 15:05:52;;;;;;;;;;;35.80;25.20;;;;;;6344826;22;20234;-92
2022/08/19 15:08:18;;;;;;;;;;;35.80;25.20;;;;;;6348021;22;19907;-92
2022/08/19 15:10:43;;;;;;;;;;;35.70;25.20;;;;;;6321436;22;19906;-92
2022/08/19 15:13:09;;;;;;;;;;;35.60;25.20;;;;;;6348820;22;19922;-93
2022/08/19 15:15:34;;;;;;;;;;;35.50;25.30;;;;;;6320686;22;19918;-92
2022/08/19 15:18:02;;;;;;;;;;;35.60;25.10;;;;;;6321256;22;19970;-92
2022/08/19 15:20:29;;;;;;;;;;;35.50;25.20;;;;;;6300154;22;19910;-94
2022/08/19 15:22:55;;;;;;;;;;;35.50;25.10;;;;;;6324074;22;19906;-94
2022/08/19 15:25:26;;;;;;;;;;;35.50;25.00;;;;;;6325369;22;19918;-96
2022/08/19 15:27:52;;;;;;;;;;;35.60;24.90;;;;;;6325492;22;20216;-96
2022/08/19 15:30:22;;;;;;;;;;;35.60;25.00;;;;;;6327764;22;19925;-94
2022/08/19 15:32:48;;;;;;;;;;;35.70;25.10;;;;;;6307004;22;19903;-95
2022/08/19 15:35:14;;;;;;;;;;;35.80;25.20;;;;;;6331577;22;19933;-95
2022/08/19 15:37:40;;;;;;;;;;;36.00;25.10;;;;;;6329275;22;20001;-95
2022/08/19 15:40:07;;;;;;;;;;;36.10;24.80;;;;;;6327393;22;19980;-92
2022/08/19 15:42:34;;;;;;;;;;;36.30;24.80;;;;;;6324561;22;19930;-92
2022/08/19 15:45:00;;;;;;;;;;;36.30;24.90;;;;;;6326019;22;20230;-94
2022/08/19 15:47:28;;;;;;;;;;;36.40;25.00;;;;;;6321547;22;19906;-93